createdAt,value
2019-03-30T00:01:19.023Z,61.54
2019-03-30T00:03:47.518Z,61.07
2019-03-30T00:06:16.020Z,61.11
2019-03-30T00:08:44.704Z,61.37
2019-03-30T00:11:13.337Z,61.33
2019-03-30T00:13:41.827Z,61.39
2019-03-30T00:16:10.434Z,61.22
2019-03-30T00:18:41.343Z,61.21
2019-03-30T00:21:09.431Z,61.12
2019-03-30T00:23:37.992Z,61.13
2019-03-30T00:26:06.482Z,60.38
2019-03-30T00:28:35.117Z,59.84
2019-03-30T00:31:03.720Z,60.01
2019-03-30T00:33:32.352Z,60.20
2019-03-30T00:36:00.982Z,60.51
2019-03-30T00:38:29.538Z,60.68
2019-03-30T00:40:58.107Z,60.84
2019-03-30T00:43:26.734Z,60.99
2019-03-30T00:45:55.415Z,61.19
2019-03-30T00:48:23.981Z,61.67
2019-03-30T00:50:52.477Z,61.99
2019-03-30T00:53:21.149Z,62.14
2019-03-30T00:55:49.788Z,62.06
2019-03-30T00:58:18.350Z,62.29
2019-03-30T01:00:47.155Z,62.13
2019-03-30T01:03:15.717Z,62.23
2019-03-30T01:05:44.347Z,62.13
2019-03-30T01:08:13.201Z,62.34
2019-03-30T01:10:41.921Z,62.45
2019-03-30T01:13:10.421Z,62.65
2019-03-30T01:15:39.038Z,63.28
2019-03-30T01:18:07.667Z,63.56
2019-03-30T01:20:36.303Z,63.52
2019-03-30T01:23:04.989Z,63.59
2019-03-30T01:25:33.487Z,63.60
2019-03-30T01:28:02.122Z,63.51
2019-03-30T01:30:30.792Z,63.60
2019-03-30T01:32:59.359Z,63.45
2019-03-30T01:35:27.960Z,62.90
2019-03-30T01:37:56.672Z,61.87
2019-03-30T01:40:25.365Z,62.17
2019-03-30T01:42:54.092Z,61.97
2019-03-30T01:45:22.659Z,62.11
2019-03-30T01:47:52.123Z,61.71
2019-03-30T01:50:20.735Z,62.49
2019-03-30T01:52:49.368Z,62.53
2019-03-30T01:55:17.930Z,62.60
2019-03-30T01:57:46.468Z,62.87
2019-03-30T02:00:15.799Z,61.49
2019-03-30T02:02:44.539Z,60.94
2019-03-30T02:05:13.482Z,60.73
2019-03-30T02:07:42.060Z,60.76
2019-03-30T02:10:11.191Z,60.85
2019-03-30T02:12:39.848Z,60.69
2019-03-30T02:15:08.781Z,60.85
2019-03-30T02:17:37.387Z,60.96
2019-03-30T02:20:11.058Z,61.60
2019-03-30T02:22:39.692Z,61.36
2019-03-30T02:25:08.564Z,61.43
2019-03-30T02:27:37.191Z,60.99
2019-03-30T02:30:07.530Z,60.80
2019-03-30T02:32:36.148Z,60.98
2019-03-30T02:35:06.841Z,61.17
2019-03-30T02:37:35.370Z,61.45
2019-03-30T02:40:05.301Z,61.40
2019-03-30T02:42:34.209Z,61.46
2019-03-30T02:45:02.788Z,61.70
2019-03-30T02:47:31.284Z,62.09
2019-03-30T02:49:59.892Z,62.13
2019-03-30T02:52:28.524Z,62.63
2019-03-30T02:54:57.105Z,63.21
2019-03-30T02:57:25.637Z,63.40
2019-03-30T02:59:54.202Z,63.42
2019-03-30T03:02:22.941Z,63.46
2019-03-30T03:04:51.542Z,63.65
2019-03-30T03:07:20.097Z,63.92
2019-03-30T03:09:48.662Z,64.13
2019-03-30T03:12:17.261Z,64.45
2019-03-30T03:14:45.756Z,65.00
2019-03-30T03:17:14.484Z,65.22
2019-03-30T03:19:43.268Z,65.41
2019-03-30T03:22:11.764Z,65.69
2019-03-30T03:24:40.337Z,65.77
2019-03-30T03:27:09.003Z,65.84
2019-03-30T03:29:37.574Z,65.79
2019-03-30T03:32:06.139Z,65.39
2019-03-30T03:34:34.978Z,65.37
2019-03-30T03:37:03.622Z,65.25
2019-03-30T03:39:32.177Z,65.29
2019-03-30T03:42:00.871Z,65.42
2019-03-30T03:44:29.514Z,65.65
2019-03-30T03:46:58.154Z,65.85
2019-03-30T03:49:26.774Z,66.14
2019-03-30T03:51:55.489Z,66.10
2019-03-30T03:54:24.222Z,65.72
2019-03-30T03:56:54.088Z,65.59
2019-03-30T03:59:25.640Z,65.43
2019-03-30T04:01:56.090Z,65.38
2019-03-30T04:04:27.516Z,65.10
2019-03-30T04:07:01.375Z,65.19
2019-03-30T04:09:32.741Z,64.97
2019-03-30T04:12:02.877Z,64.55
2019-03-30T04:14:33.156Z,64.07
2019-03-30T04:17:01.699Z,63.93
2019-03-30T04:19:30.466Z,64.56
2019-03-30T04:21:59.102Z,64.02
2019-03-30T04:24:27.693Z,63.75
2019-03-30T04:26:56.264Z,63.44
2019-03-30T04:29:24.822Z,62.87
2019-03-30T04:31:53.345Z,62.65
2019-03-30T04:34:21.912Z,61.77
2019-03-30T04:36:50.554Z,61.23
2019-03-30T04:39:19.159Z,60.70
2019-03-30T04:41:47.778Z,59.33
2019-03-30T04:44:16.358Z,57.72
2019-03-30T04:46:45.043Z,55.76
2019-03-30T04:49:14.008Z,53.09
2019-03-30T04:51:56.544Z,51.83
2019-03-30T04:54:12.833Z,51.73
2019-03-30T04:56:41.472Z,52.08
2019-03-30T04:59:10.032Z,51.89
2019-03-30T05:01:38.626Z,52.70
2019-03-30T05:04:07.189Z,52.44
2019-03-30T05:06:35.880Z,52.69
2019-03-30T05:09:05.808Z,51.34
2019-03-30T05:11:34.489Z,49.67
2019-03-30T05:14:03.063Z,47.61
2019-03-30T05:16:31.560Z,45.00
2019-03-30T05:19:00.205Z,43.32
2019-03-30T05:21:28.920Z,41.99
2019-03-30T05:23:57.680Z,40.66
2019-03-30T05:26:26.186Z,41.53
2019-03-30T05:28:54.764Z,42.31
2019-03-30T05:31:23.475Z,41.17
2019-03-30T05:33:52.042Z,39.16
2019-03-30T05:36:20.544Z,37.65
2019-03-30T05:38:49.319Z,36.78
2019-03-30T05:41:17.960Z,35.43
2019-03-30T05:43:46.528Z,35.76
2019-03-30T05:46:15.134Z,35.56
2019-03-30T05:48:43.704Z,35.37
2019-03-30T05:51:12.274Z,35.10
2019-03-30T05:53:40.891Z,34.82
2019-03-30T05:56:09.529Z,34.77
2019-03-30T05:58:38.092Z,36.34
2019-03-30T06:01:06.628Z,37.08
2019-03-30T06:03:35.202Z,37.36
2019-03-30T06:06:03.839Z,37.98
2019-03-30T06:08:32.450Z,38.52
2019-03-30T06:11:00.951Z,38.60
2019-03-30T06:13:29.527Z,38.06
2019-03-30T06:15:58.203Z,38.28
2019-03-30T06:18:26.774Z,38.13
2019-03-30T06:20:55.342Z,38.13
2019-03-30T06:23:24.126Z,36.90
2019-03-30T06:25:52.693Z,36.87
2019-03-30T06:28:21.261Z,37.13
2019-03-30T06:30:50.005Z,37.31
2019-03-30T06:33:18.650Z,37.03
2019-03-30T06:35:47.219Z,36.55
2019-03-30T06:38:15.898Z,36.53
2019-03-30T06:40:44.548Z,36.15
2019-03-30T06:43:13.099Z,34.91
2019-03-30T06:45:41.635Z,33.67
2019-03-30T06:48:10.275Z,31.84
2019-03-30T06:50:38.917Z,32.08
2019-03-30T06:53:07.558Z,32.26
2019-03-30T06:55:36.134Z,33.06
2019-03-30T06:58:04.709Z,33.45
2019-03-30T07:00:34.805Z,34.06
2019-03-30T07:03:05.217Z,36.52
2019-03-30T07:05:36.771Z,37.41
2019-03-30T07:08:07.262Z,37.80
2019-03-30T07:10:38.413Z,37.81
2019-03-30T07:13:07.065Z,36.23
2019-03-30T07:15:38.657Z,33.97
2019-03-30T07:18:07.223Z,31.48
2019-03-30T07:20:35.712Z,30.35
2019-03-30T07:23:11.838Z,30.39
2019-03-30T07:25:34.947Z,29.91
2019-03-30T07:28:03.574Z,30.97
2019-03-30T07:30:32.213Z,31.64
2019-03-30T07:33:00.791Z,31.73
2019-03-30T07:35:29.439Z,35.73
2019-03-30T07:37:58.041Z,34.52
2019-03-30T07:40:26.694Z,35.31
2019-03-30T07:42:55.268Z,36.98
2019-03-30T07:45:23.940Z,37.45
2019-03-30T07:47:52.581Z,37.37
2019-03-30T07:50:21.332Z,35.79
2019-03-30T07:52:49.972Z,35.50
2019-03-30T07:55:18.608Z,37.09
2019-03-30T07:57:47.214Z,38.77
2019-03-30T08:00:15.950Z,37.24
2019-03-30T08:02:44.520Z,38.91
2019-03-30T08:05:13.310Z,37.48
2019-03-30T08:07:41.952Z,37.84
2019-03-30T08:10:10.796Z,37.74
2019-03-30T08:12:39.610Z,36.25
2019-03-30T08:15:09.279Z,38.35
2019-03-30T08:17:37.925Z,39.52
2019-03-30T08:20:07.691Z,37.28
2019-03-30T08:22:36.464Z,36.10
2019-03-30T08:25:06.403Z,35.43
2019-03-30T08:27:35.981Z,34.82
2019-03-30T08:30:05.813Z,34.60
2019-03-30T08:32:34.450Z,34.11
2019-03-30T08:35:03.418Z,35.55
2019-03-30T08:37:31.983Z,34.46
2019-03-30T08:40:00.622Z,37.85
2019-03-30T08:42:29.294Z,37.20
2019-03-30T08:44:57.790Z,38.56
2019-03-30T08:47:26.377Z,38.52
2019-03-30T08:49:55.048Z,38.60
2019-03-30T08:52:23.650Z,37.86
2019-03-30T08:54:52.424Z,37.70
2019-03-30T08:57:21.033Z,37.01
2019-03-30T08:59:49.670Z,36.34
2019-03-30T09:02:18.251Z,36.11
2019-03-30T09:04:46.846Z,36.58
2019-03-30T09:07:15.412Z,36.73
2019-03-30T09:09:44.049Z,35.99
2019-03-30T09:12:12.725Z,36.90
2019-03-30T09:14:41.372Z,38.24
2019-03-30T09:17:10.015Z,39.12
2019-03-30T09:19:38.723Z,38.75
2019-03-30T09:22:07.283Z,38.66
2019-03-30T09:24:35.923Z,38.05
2019-03-30T09:27:04.581Z,38.76
2019-03-30T09:29:33.230Z,38.27
2019-03-30T09:32:13.636Z,39.18
2019-03-30T09:34:32.295Z,37.33
2019-03-30T09:37:00.931Z,37.42
2019-03-30T09:39:29.503Z,37.23
2019-03-30T09:41:58.112Z,37.25
2019-03-30T09:44:26.675Z,38.10
2019-03-30T09:46:55.239Z,38.02
2019-03-30T09:49:23.924Z,38.15
2019-03-30T09:51:52.482Z,38.01
2019-03-30T09:54:23.855Z,37.84
2019-03-30T09:56:51.473Z,37.19
2019-03-30T09:59:20.106Z,37.57
2019-03-30T10:01:48.678Z,37.18
2019-03-30T10:04:17.524Z,37.90
2019-03-30T10:06:46.155Z,37.29
2019-03-30T10:09:14.937Z,37.50
2019-03-30T10:11:43.533Z,37.86
2019-03-30T10:14:12.206Z,36.86
2019-03-30T10:16:40.789Z,35.96
2019-03-30T10:19:09.644Z,35.86
2019-03-30T10:21:38.184Z,36.86
2019-03-30T10:24:06.744Z,37.58
2019-03-30T10:26:35.487Z,38.24
2019-03-30T10:29:04.055Z,37.02
2019-03-30T10:31:32.663Z,36.01
2019-03-30T10:34:01.344Z,36.64
2019-03-30T10:36:29.902Z,36.47
2019-03-30T10:38:58.392Z,36.14
2019-03-30T10:41:27.037Z,36.92
2019-03-30T10:43:55.669Z,37.56
2019-03-30T10:46:24.251Z,38.07
2019-03-30T10:48:52.779Z,37.42
2019-03-30T10:51:21.342Z,37.11
2019-03-30T10:53:49.970Z,36.09
2019-03-30T10:56:18.560Z,36.30
2019-03-30T10:58:47.068Z,36.47
2019-03-30T11:01:15.695Z,36.92
2019-03-30T11:03:44.308Z,36.91
2019-03-30T11:06:12.982Z,36.81
2019-03-30T11:08:41.610Z,37.11
2019-03-30T11:11:10.227Z,37.98
2019-03-30T11:13:38.719Z,37.36
2019-03-30T11:16:07.287Z,37.54
2019-03-30T11:18:36.147Z,37.94
2019-03-30T11:21:04.884Z,37.40
2019-03-30T11:23:33.374Z,37.33
2019-03-30T11:26:02.051Z,37.12
2019-03-30T11:28:30.691Z,36.59
2019-03-30T11:30:59.320Z,35.94
2019-03-30T11:33:27.863Z,35.89
2019-03-30T11:35:56.494Z,36.12
2019-03-30T11:38:25.124Z,36.19
2019-03-30T11:40:53.729Z,36.14
2019-03-30T11:43:22.358Z,36.32
2019-03-30T11:45:50.995Z,36.18
2019-03-30T11:48:19.557Z,35.69
2019-03-30T11:50:48.272Z,35.55
2019-03-30T11:53:16.913Z,36.17
2019-03-30T11:55:45.512Z,36.11
2019-03-30T11:58:13.999Z,36.31
2019-03-30T12:00:42.569Z,35.90
2019-03-30T12:03:11.235Z,35.80
2019-03-30T12:05:39.800Z,36.09
2019-03-30T12:08:08.370Z,36.83
2019-03-30T12:10:37.208Z,36.29
2019-03-30T12:13:05.839Z,36.45
2019-03-30T12:15:34.400Z,35.75
2019-03-30T12:18:03.172Z,35.50
2019-03-30T12:20:31.742Z,35.35
2019-03-30T12:23:00.363Z,35.05
2019-03-30T12:25:35.491Z,35.72
2019-03-30T12:27:59.313Z,35.61
2019-03-30T12:30:27.881Z,34.72
2019-03-30T12:32:56.513Z,35.02
2019-03-30T12:35:25.213Z,34.99
2019-03-30T12:37:53.850Z,35.19
2019-03-30T12:40:22.521Z,34.39
2019-03-30T12:42:51.156Z,35.43
2019-03-30T12:45:19.781Z,34.96
2019-03-30T12:47:48.449Z,35.22
2019-03-30T12:50:17.279Z,35.04
2019-03-30T12:52:45.839Z,34.14
2019-03-30T12:55:14.512Z,34.56
2019-03-30T12:57:43.139Z,34.40
2019-03-30T13:00:12.060Z,33.96
2019-03-30T13:02:40.592Z,34.18
2019-03-30T13:05:09.160Z,34.90
2019-03-30T13:07:37.792Z,33.86
2019-03-30T13:10:07.560Z,34.62
2019-03-30T13:12:36.200Z,34.42
2019-03-30T13:15:06.935Z,34.63
2019-03-30T13:17:35.601Z,34.40
2019-03-30T13:20:05.536Z,33.66
2019-03-30T13:22:34.101Z,33.87
2019-03-30T13:25:02.711Z,34.10
2019-03-30T13:27:31.343Z,33.38
2019-03-30T13:29:59.971Z,33.09
2019-03-30T13:32:28.502Z,33.34
2019-03-30T13:34:57.055Z,33.24
2019-03-30T13:37:25.686Z,33.54
2019-03-30T13:39:54.510Z,33.93
2019-03-30T13:42:23.063Z,34.47
2019-03-30T13:44:51.628Z,34.24
2019-03-30T13:47:20.247Z,34.14
2019-03-30T13:49:48.806Z,34.49
2019-03-30T13:52:17.528Z,34.23
2019-03-30T13:54:46.209Z,34.02
2019-03-30T13:57:14.778Z,33.78
2019-03-30T13:59:43.335Z,33.55
2019-03-30T14:02:12.008Z,34.43
2019-03-30T14:04:40.638Z,34.90
2019-03-30T14:07:09.132Z,35.11
2019-03-30T14:09:37.760Z,34.44
2019-03-30T14:12:06.546Z,34.52
2019-03-30T14:14:35.099Z,34.67
2019-03-30T14:17:03.625Z,34.37
2019-03-30T14:19:32.201Z,34.35
2019-03-30T14:22:00.770Z,34.78
2019-03-30T14:24:29.589Z,34.96
2019-03-30T14:26:58.223Z,34.76
2019-03-30T14:29:26.851Z,34.08
2019-03-30T14:31:55.375Z,35.03
2019-03-30T14:34:24.022Z,35.30
2019-03-30T14:36:52.704Z,35.27
2019-03-30T14:39:21.295Z,35.38
2019-03-30T14:41:49.969Z,35.23
2019-03-30T14:44:18.541Z,35.13
2019-03-30T14:46:47.204Z,35.61
2019-03-30T14:49:15.821Z,35.66
2019-03-30T14:51:44.382Z,35.84
2019-03-30T14:54:13.158Z,35.82
2019-03-30T14:56:45.807Z,35.44
2019-03-30T14:59:14.419Z,35.58
2019-03-30T15:01:42.523Z,36.19
2019-03-30T15:04:11.108Z,36.28
2019-03-30T15:06:39.606Z,36.41
2019-03-30T15:09:08.316Z,36.41
2019-03-30T15:11:38.088Z,36.61
2019-03-30T15:14:06.742Z,36.71
2019-03-30T15:16:35.493Z,36.82
2019-03-30T15:19:04.053Z,36.87
2019-03-30T15:21:32.615Z,36.90
2019-03-30T15:24:01.448Z,37.20
2019-03-30T15:26:29.937Z,37.35
2019-03-30T15:28:58.499Z,37.27
2019-03-30T15:31:27.403Z,37.48
2019-03-30T15:33:55.968Z,37.85
2019-03-30T15:36:24.532Z,38.27
2019-03-30T15:38:53.378Z,37.96
2019-03-30T15:41:22.013Z,38.29
2019-03-30T15:43:52.179Z,38.65
2019-03-30T15:46:21.057Z,38.76
2019-03-30T15:48:49.684Z,39.16
2019-03-30T15:51:18.265Z,39.30
2019-03-30T15:53:47.109Z,39.34
2019-03-30T15:56:15.750Z,39.46
2019-03-30T15:58:44.318Z,39.37
2019-03-30T16:01:13.091Z,39.40
2019-03-30T16:03:41.715Z,39.50
2019-03-30T16:06:10.350Z,39.85
2019-03-30T16:08:39.015Z,39.79
2019-03-30T16:11:07.581Z,40.05
2019-03-30T16:13:36.148Z,40.20
2019-03-30T16:16:04.877Z,40.36
2019-03-30T16:18:33.431Z,40.21
2019-03-30T16:21:01.993Z,40.09
2019-03-30T16:23:30.826Z,40.25
2019-03-30T16:25:59.374Z,40.40
2019-03-30T16:28:27.960Z,40.75
2019-03-30T16:30:56.615Z,40.88
2019-03-30T16:33:25.178Z,41.21
2019-03-30T16:35:53.715Z,41.31
2019-03-30T16:38:22.510Z,41.47
2019-03-30T16:40:51.159Z,41.65
2019-03-30T16:43:19.876Z,41.74
2019-03-30T16:45:48.588Z,41.94
2019-03-30T16:48:17.229Z,42.29
2019-03-30T16:50:45.857Z,42.60
2019-03-30T16:53:14.474Z,42.50
2019-03-30T16:55:43.049Z,42.68
2019-03-30T16:58:11.684Z,42.81
2019-03-30T17:00:55.369Z,42.75
2019-03-30T17:03:10.631Z,43.08
2019-03-30T17:05:39.313Z,43.23
2019-03-30T17:08:07.878Z,43.34
2019-03-30T17:10:36.369Z,43.51
2019-03-30T17:13:05.173Z,43.60
2019-03-30T17:15:33.831Z,43.61
2019-03-30T17:18:02.543Z,43.81
2019-03-30T17:20:31.162Z,43.93
2019-03-30T17:22:59.795Z,44.07
2019-03-30T17:25:28.355Z,44.35
2019-03-30T17:27:58.861Z,44.36
2019-03-30T17:30:27.227Z,44.51
2019-03-30T17:32:55.755Z,44.44
2019-03-30T17:35:24.568Z,44.71
2019-03-30T17:37:53.138Z,44.81
2019-03-30T17:40:21.708Z,44.84
2019-03-30T17:42:50.516Z,45.08
2019-03-30T17:45:19.155Z,45.18
2019-03-30T17:47:47.798Z,45.43
2019-03-30T17:50:16.671Z,45.68
2019-03-30T17:52:45.357Z,45.82
2019-03-30T17:55:14.157Z,45.72
2019-03-30T17:57:43.040Z,45.89
2019-03-30T18:00:14.211Z,45.92
2019-03-30T18:02:42.852Z,46.23
2019-03-30T18:05:11.633Z,46.14
2019-03-30T18:07:40.282Z,46.22
2019-03-30T18:10:10.106Z,46.40
2019-03-30T18:12:38.224Z,46.71
2019-03-30T18:15:08.162Z,46.71
2019-03-30T18:17:36.725Z,46.79
2019-03-30T18:20:07.109Z,46.93
2019-03-30T18:22:35.740Z,47.18
2019-03-30T18:25:06.686Z,47.11
2019-03-30T18:27:35.284Z,47.30
2019-03-30T18:30:05.521Z,47.44
2019-03-30T18:32:34.639Z,47.52
2019-03-30T18:35:05.230Z,47.70
2019-03-30T18:37:35.068Z,47.73
2019-03-30T18:40:05.208Z,47.73
2019-03-30T18:42:33.883Z,47.95
2019-03-30T18:45:03.229Z,47.90
2019-03-30T18:47:31.770Z,48.08
2019-03-30T18:50:00.702Z,48.36
2019-03-30T18:52:29.548Z,48.45
2019-03-30T18:54:58.494Z,48.62
2019-03-30T18:57:27.311Z,48.63
2019-03-30T18:59:55.939Z,48.69
2019-03-30T19:02:24.437Z,48.98
2019-03-30T19:04:53.080Z,49.08
2019-03-30T19:07:21.713Z,49.26
2019-03-30T19:09:50.408Z,49.33
2019-03-30T19:12:18.917Z,49.60
2019-03-30T19:14:47.554Z,49.77
2019-03-30T19:17:16.241Z,49.99
2019-03-30T19:19:44.775Z,50.59
2019-03-30T19:22:13.277Z,50.20
2019-03-30T19:24:42.058Z,50.42
2019-03-30T19:27:10.694Z,50.50
2019-03-30T19:29:39.424Z,50.63
2019-03-30T19:32:08.141Z,50.63
2019-03-30T19:34:36.777Z,50.81
2019-03-30T19:37:05.416Z,50.85
2019-03-30T19:39:33.951Z,50.96
2019-03-30T19:42:02.588Z,51.15
2019-03-30T19:44:31.094Z,51.02
2019-03-30T19:46:59.641Z,51.39
2019-03-30T19:49:28.272Z,52.15
2019-03-30T19:51:56.954Z,52.88
2019-03-30T19:54:25.498Z,53.21
2019-03-30T19:56:54.116Z,53.47
2019-03-30T19:59:22.825Z,53.33
2019-03-30T20:01:51.498Z,53.64
2019-03-30T20:04:20.136Z,53.95
2019-03-30T20:06:48.704Z,54.31
2019-03-30T20:09:20.674Z,54.08
2019-03-30T20:11:47.737Z,54.32
2019-03-30T20:14:16.381Z,54.08
2019-03-30T20:16:45.111Z,54.61
2019-03-30T20:19:13.861Z,54.62
2019-03-30T20:21:42.431Z,54.86
2019-03-30T20:24:11.364Z,54.90
2019-03-30T20:26:40.005Z,54.74
2019-03-30T20:29:08.778Z,54.42
2019-03-30T20:31:37.409Z,54.37
2019-03-30T20:34:06.045Z,54.67
2019-03-30T20:36:35.332Z,55.35
2019-03-30T20:39:08.213Z,55.64
2019-03-30T20:41:35.790Z,55.47
2019-03-30T20:44:04.526Z,55.82
2019-03-30T20:46:33.265Z,56.31
2019-03-30T20:49:01.824Z,56.73
2019-03-30T20:51:30.337Z,57.29
2019-03-30T20:53:58.945Z,57.79
2019-03-30T20:56:27.582Z,58.16
2019-03-30T20:58:56.221Z,58.28
2019-03-30T21:01:25.116Z,58.46
2019-03-30T21:03:53.649Z,58.73
2019-03-30T21:06:22.142Z,59.05
2019-03-30T21:08:50.828Z,59.46
2019-03-30T21:11:19.467Z,59.32
2019-03-30T21:13:48.021Z,59.63
2019-03-30T21:16:16.546Z,59.79
2019-03-30T21:18:45.186Z,60.06
2019-03-30T21:21:13.833Z,60.22
2019-03-30T21:23:42.532Z,60.73
2019-03-30T21:26:11.029Z,60.96
2019-03-30T21:28:39.735Z,61.33
2019-03-30T21:31:08.420Z,61.64
2019-03-30T21:33:36.920Z,61.94
2019-03-30T21:36:05.488Z,62.44
2019-03-30T21:38:34.171Z,62.70
2019-03-30T21:41:02.664Z,62.76
2019-03-30T21:43:31.296Z,62.51
2019-03-30T21:45:59.968Z,62.06
2019-03-30T21:48:28.458Z,62.45
2019-03-30T21:50:56.953Z,63.00
2019-03-30T21:53:25.626Z,63.26
2019-03-30T21:55:54.287Z,63.22
2019-03-30T21:58:22.784Z,63.58
2019-03-30T22:00:51.534Z,63.73
2019-03-30T22:03:20.170Z,63.98
2019-03-30T22:05:48.906Z,64.33
2019-03-30T22:08:17.785Z,64.07
2019-03-30T22:10:46.275Z,63.92
2019-03-30T22:13:15.174Z,64.26
2019-03-30T22:15:43.860Z,64.37
2019-03-30T22:18:12.501Z,64.50
2019-03-30T22:20:41.138Z,64.97
2019-03-30T22:23:09.749Z,65.12
2019-03-30T22:25:38.257Z,65.25
2019-03-30T22:28:06.896Z,65.58
2019-03-30T22:30:35.608Z,65.78
2019-03-30T22:33:04.144Z,66.30
2019-03-30T22:35:32.706Z,66.09
2019-03-30T22:38:01.392Z,66.64
2019-03-30T22:40:30.047Z,66.54
2019-03-30T22:42:58.545Z,66.80
2019-03-30T22:45:27.085Z,67.14
2019-03-30T22:47:55.715Z,67.17
2019-03-30T22:50:24.375Z,67.11
2019-03-30T22:52:52.918Z,67.25
2019-03-30T22:55:21.451Z,67.59
2019-03-30T22:57:50.284Z,67.58
2019-03-30T23:00:38.819Z,67.51
2019-03-30T23:03:07.928Z,67.54
2019-03-30T23:05:36.559Z,67.72
2019-03-30T23:08:05.326Z,67.85
2019-03-30T23:10:33.960Z,67.79
2019-03-30T23:13:02.621Z,68.22
2019-03-30T23:15:31.556Z,68.63
2019-03-30T23:18:00.109Z,68.54
2019-03-30T23:20:28.675Z,68.26
2019-03-30T23:22:57.612Z,68.14
2019-03-30T23:25:26.245Z,68.40
2019-03-30T23:27:54.813Z,68.24
2019-03-30T23:30:23.487Z,68.73
2019-03-30T23:32:52.127Z,68.88
2019-03-30T23:35:20.697Z,69.10
2019-03-30T23:37:49.298Z,69.42
2019-03-30T23:40:17.793Z,69.54
2019-03-30T23:42:46.433Z,70.14
2019-03-30T23:45:15.136Z,70.13
2019-03-30T23:47:43.627Z,70.08
2019-03-30T23:50:13.832Z,70.67
2019-03-30T23:52:42.644Z,70.78
2019-03-30T23:55:11.276Z,71.33
2019-03-30T23:57:39.836Z,71.85
